createdAt,value
2023-09-10T00:00:19.938Z,21.86
2023-09-10T00:01:22.639Z,21.84
2023-09-10T00:02:24.560Z,21.84
2023-09-10T00:03:26.501Z,21.83
2023-09-10T00:04:28.631Z,21.81
2023-09-10T00:05:34.118Z,21.80
2023-09-10T00:06:37.372Z,21.80
2023-09-10T00:07:39.352Z,21.79
2023-09-10T00:08:41.513Z,21.78
2023-09-10T00:09:43.685Z,21.76
2023-09-10T00:10:45.667Z,21.76
2023-09-10T00:11:48.110Z,21.75
2023-09-10T00:12:49.985Z,21.74
2023-09-10T00:13:51.878Z,21.74
2023-09-10T00:14:53.842Z,21.73
2023-09-10T00:15:57.224Z,21.72
2023-09-10T00:16:59.216Z,21.72
2023-09-10T00:18:01.343Z,21.71
2023-09-10T00:19:03.420Z,21.69
2023-09-10T00:20:07.935Z,21.66
2023-09-10T00:21:10.341Z,21.66
2023-09-10T00:22:12.380Z,21.65
2023-09-10T00:23:15.194Z,21.64
2023-09-10T00:24:17.243Z,21.63
2023-09-10T00:25:19.168Z,21.63
2023-09-10T00:26:21.053Z,21.60
2023-09-10T00:27:23.101Z,21.60
2023-09-10T00:28:25.091Z,21.58
2023-09-10T00:29:27.281Z,21.56
2023-09-10T00:30:29.570Z,21.55
2023-09-10T00:31:34.830Z,21.55
2023-09-10T00:32:37.389Z,21.54
2023-09-10T00:33:39.424Z,21.54
2023-09-10T00:34:41.773Z,21.54
2023-09-10T00:35:43.834Z,21.53
2023-09-10T00:36:45.750Z,21.50
2023-09-10T00:37:47.730Z,21.47
2023-09-10T00:38:51.667Z,21.44
2023-09-10T00:39:53.542Z,21.46
2023-09-10T00:40:55.518Z,21.45
2023-09-10T00:41:57.397Z,21.46
2023-09-10T00:42:59.325Z,21.45
2023-09-10T00:44:01.756Z,21.44
2023-09-10T00:45:06.442Z,21.45
2023-09-10T00:46:08.683Z,21.43
2023-09-10T00:47:11.378Z,21.42
2023-09-10T00:48:14.037Z,21.42
2023-09-10T00:49:16.230Z,21.42
2023-09-10T00:50:19.160Z,21.41
2023-09-10T00:51:22.059Z,21.38
2023-09-10T00:52:26.389Z,21.38
2023-09-10T00:53:28.536Z,21.36
2023-09-10T00:54:35.321Z,21.38
2023-09-10T00:55:37.703Z,21.37
2023-09-10T00:56:40.636Z,21.36
2023-09-10T00:57:43.330Z,21.37
2023-09-10T00:58:45.905Z,21.36
2023-09-10T00:59:48.521Z,21.33
2023-09-10T01:00:51.132Z,21.33
2023-09-10T01:01:53.961Z,21.33
2023-09-10T01:03:00.049Z,21.29
2023-09-10T01:04:02.567Z,21.30
2023-09-10T01:05:05.165Z,21.28
2023-09-10T01:06:08.301Z,21.28
2023-09-10T01:07:10.547Z,21.27
2023-09-10T01:08:12.729Z,21.26
2023-09-10T01:09:15.170Z,21.26
2023-09-10T01:10:18.249Z,21.25
2023-09-10T01:11:48.223Z,21.22
2023-09-10T01:13:28.108Z,21.19
2023-09-10T01:14:43.400Z,21.14
2023-09-10T01:16:05.265Z,21.11
2023-09-10T01:17:38.716Z,21.05
2023-09-10T01:19:00.578Z,21.01
2023-09-10T01:20:37.205Z,20.97
2023-09-10T01:21:56.231Z,20.91
2023-09-10T01:23:16.361Z,20.88
2023-09-10T01:24:51.185Z,20.84
2023-09-10T01:25:53.809Z,20.80
2023-09-10T01:27:00.240Z,20.76
2023-09-10T01:28:05.314Z,20.75
2023-09-10T01:29:13.755Z,20.75
2023-09-10T01:30:15.831Z,20.72
2023-09-10T01:31:19.043Z,20.71
2023-09-10T01:32:49.842Z,20.70
2023-09-10T01:33:57.977Z,20.71
2023-09-10T01:35:56.581Z,20.69
2023-09-10T01:37:17.563Z,20.70
2023-09-10T01:38:54.501Z,20.70
2023-09-10T01:40:00.405Z,20.69
2023-09-10T01:41:20.853Z,20.66
2023-09-10T01:42:25.902Z,20.66
2023-09-10T01:43:29.541Z,20.66
2023-09-10T01:44:37.011Z,20.64
2023-09-10T01:45:39.760Z,20.63
2023-09-10T01:46:43.936Z,20.61
2023-09-10T01:47:46.103Z,20.60
2023-09-10T01:48:48.581Z,20.59
2023-09-10T01:49:50.917Z,20.60
2023-09-10T01:50:54.471Z,20.58
2023-09-10T01:51:57.117Z,20.57
2023-09-10T01:52:59.809Z,20.57
2023-09-10T01:54:01.846Z,20.56
2023-09-10T01:55:04.521Z,20.55
2023-09-10T01:56:06.669Z,20.54
2023-09-10T01:57:09.090Z,20.53
2023-09-10T01:58:14.253Z,20.50
2023-09-10T01:59:16.486Z,20.50
2023-09-10T02:00:18.578Z,20.48
2023-09-10T02:01:20.697Z,20.47
2023-09-10T02:02:22.867Z,20.47
2023-09-10T02:03:24.875Z,20.47
2023-09-10T02:04:26.874Z,20.47
2023-09-10T02:05:28.773Z,20.47
2023-09-10T02:06:30.909Z,20.45
2023-09-10T02:07:32.887Z,20.44
2023-09-10T02:08:34.910Z,20.44
2023-09-10T02:09:37.247Z,20.43
2023-09-10T02:10:39.323Z,20.41
2023-09-10T02:11:43.178Z,20.42
2023-09-10T02:12:45.151Z,20.43
2023-09-10T02:13:47.329Z,20.44
2023-09-10T02:14:50.232Z,20.44
2023-09-10T02:15:52.728Z,20.42
2023-09-10T02:16:54.840Z,20.42
2023-09-10T02:17:58.228Z,20.42
2023-09-10T02:19:00.123Z,20.41
2023-09-10T02:20:02.233Z,20.40
2023-09-10T02:21:13.598Z,20.38
2023-09-10T02:22:15.580Z,20.36
2023-09-10T02:23:17.809Z,20.37
2023-09-10T02:24:19.681Z,20.37
2023-09-10T02:25:21.746Z,20.36
2023-09-10T02:26:23.779Z,20.36
2023-09-10T02:27:25.767Z,20.38
2023-09-10T02:28:28.871Z,20.36
2023-09-10T02:29:30.824Z,20.35
2023-09-10T02:30:32.982Z,20.32
2023-09-10T02:31:35.078Z,20.30
2023-09-10T02:32:38.907Z,20.31
2023-09-10T02:33:40.903Z,20.27
2023-09-10T02:34:43.019Z,20.28
2023-09-10T02:35:44.859Z,20.26
2023-09-10T02:36:46.732Z,20.21
2023-09-10T02:37:48.672Z,20.23
2023-09-10T02:38:50.754Z,20.23
2023-09-10T02:39:52.928Z,20.21
2023-09-10T02:40:57.542Z,20.21
2023-09-10T02:41:59.474Z,20.19
2023-09-10T02:43:01.576Z,20.20
2023-09-10T02:44:06.390Z,20.20
2023-09-10T02:45:09.484Z,20.20
2023-09-10T02:46:11.613Z,20.21
2023-09-10T02:47:13.717Z,20.20
2023-09-10T02:48:16.100Z,20.18
2023-09-10T02:49:18.532Z,20.18
2023-09-10T02:50:20.470Z,20.17
2023-09-10T02:51:22.397Z,20.15
2023-09-10T02:52:27.888Z,20.16
2023-09-10T02:53:29.954Z,20.15
2023-09-10T02:54:36.181Z,20.14
2023-09-10T02:55:38.540Z,20.13
2023-09-10T02:56:40.748Z,20.11
2023-09-10T02:57:42.735Z,20.08
2023-09-10T02:58:44.610Z,20.06
2023-09-10T02:59:46.865Z,20.03
2023-09-10T03:00:49.424Z,19.99
2023-09-10T03:01:51.661Z,19.98
2023-09-10T03:02:57.487Z,19.96
2023-09-10T03:03:59.883Z,19.96
2023-09-10T03:05:05.116Z,19.95
2023-09-10T03:06:14.194Z,19.96
2023-09-10T03:07:16.433Z,19.94
2023-09-10T03:08:18.334Z,19.92
2023-09-10T03:09:20.249Z,19.90
2023-09-10T03:10:22.696Z,19.89
2023-09-10T03:11:24.639Z,19.87
2023-09-10T03:12:30.320Z,19.85
2023-09-10T03:13:33.812Z,19.82
2023-09-10T03:14:35.788Z,19.80
2023-09-10T03:15:37.982Z,19.78
2023-09-10T03:16:43.386Z,19.78
2023-09-10T03:17:47.838Z,19.78
2023-09-10T03:18:52.821Z,19.79
2023-09-10T03:19:55.199Z,19.79
2023-09-10T03:20:57.578Z,19.82
2023-09-10T03:21:59.828Z,19.82
2023-09-10T03:23:03.407Z,19.82
2023-09-10T03:24:08.035Z,19.81
2023-09-10T03:25:10.826Z,19.83
2023-09-10T03:26:13.710Z,19.83
2023-09-10T03:27:15.634Z,19.85
2023-09-10T03:28:17.660Z,19.82
2023-09-10T03:29:19.582Z,19.83
2023-09-10T03:30:23.627Z,19.84
2023-09-10T03:31:25.778Z,19.85
2023-09-10T03:32:28.220Z,19.85
2023-09-10T03:33:30.545Z,19.86
2023-09-10T03:34:32.895Z,19.83
2023-09-10T03:35:34.842Z,19.83
2023-09-10T03:36:36.732Z,19.81
2023-09-10T03:37:40.657Z,19.81
2023-09-10T03:38:42.659Z,19.84
2023-09-10T03:39:47.663Z,19.84
2023-09-10T03:40:49.721Z,19.85
2023-09-10T03:41:53.374Z,19.85
2023-09-10T03:42:55.466Z,19.83
2023-09-10T03:43:58.157Z,19.82
2023-09-10T03:45:00.205Z,19.79
2023-09-10T03:46:02.756Z,19.77
2023-09-10T03:47:05.436Z,19.76
2023-09-10T03:48:10.658Z,19.75
2023-09-10T03:49:12.751Z,19.72
2023-09-10T03:50:16.266Z,19.71
2023-09-10T03:51:18.442Z,19.71
2023-09-10T03:52:22.787Z,19.71
2023-09-10T03:53:24.712Z,19.71
2023-09-10T03:54:27.062Z,19.69
2023-09-10T03:55:28.963Z,19.69
2023-09-10T03:56:30.807Z,19.67
2023-09-10T03:57:32.910Z,19.65
2023-09-10T03:58:35.447Z,19.65
2023-09-10T03:59:38.124Z,19.63
2023-09-10T04:00:40.794Z,19.59
2023-09-10T04:01:42.892Z,19.58
2023-09-10T04:02:45.120Z,19.56
2023-09-10T04:03:47.445Z,19.55
2023-09-10T04:04:52.442Z,19.53
2023-09-10T04:05:54.808Z,19.51
2023-09-10T04:06:59.994Z,19.47
2023-09-10T04:08:02.104Z,19.42
2023-09-10T04:09:04.989Z,19.38
2023-09-10T04:10:09.079Z,19.35
2023-09-10T04:11:11.069Z,19.31
2023-09-10T04:12:13.084Z,19.27
2023-09-10T04:13:15.096Z,19.24
2023-09-10T04:14:17.058Z,19.22
2023-09-10T04:15:19.041Z,19.21
2023-09-10T04:16:21.163Z,19.21
2023-09-10T04:17:23.414Z,19.20
2023-09-10T04:18:25.417Z,19.17
2023-09-10T04:19:27.582Z,19.18
2023-09-10T04:20:29.763Z,19.15
2023-09-10T04:21:31.683Z,19.17
2023-09-10T04:22:33.551Z,19.16
2023-09-10T04:23:36.120Z,19.17
2023-09-10T04:24:38.555Z,19.16
2023-09-10T04:25:40.502Z,19.16
2023-09-10T04:26:43.642Z,19.15
2023-09-10T04:27:47.034Z,19.15
2023-09-10T04:28:48.986Z,19.14
2023-09-10T04:29:51.067Z,19.14
2023-09-10T04:30:53.061Z,19.13
2023-09-10T04:31:55.072Z,19.13
2023-09-10T04:32:57.034Z,19.13
2023-09-10T04:33:59.805Z,19.13
2023-09-10T04:35:03.757Z,19.13
2023-09-10T04:36:06.029Z,19.12
2023-09-10T04:37:08.027Z,19.11
2023-09-10T04:38:09.994Z,19.11
2023-09-10T04:39:11.979Z,19.10
2023-09-10T04:40:16.937Z,19.07
2023-09-10T04:41:18.831Z,19.06
2023-09-10T04:42:20.763Z,19.04
2023-09-10T04:43:23.347Z,19.03
2023-09-10T04:44:25.268Z,19.02
2023-09-10T04:45:27.129Z,19.03
2023-09-10T04:46:29.706Z,19.03
2023-09-10T04:47:31.981Z,19.02
2023-09-10T04:48:34.192Z,19.01
2023-09-10T04:49:36.433Z,19.00
2023-09-10T04:50:38.725Z,18.99
2023-09-10T04:51:40.672Z,18.98
2023-09-10T04:52:42.696Z,18.97
2023-09-10T04:53:45.361Z,18.99
2023-09-10T04:54:47.414Z,18.99
2023-09-10T04:55:55.170Z,19.00
2023-09-10T04:57:00.482Z,19.01
2023-09-10T04:58:05.150Z,19.01
2023-09-10T04:59:07.162Z,19.04
2023-09-10T05:00:10.344Z,19.03
2023-09-10T05:01:12.622Z,19.05
2023-09-10T05:02:14.667Z,19.03
2023-09-10T05:03:16.884Z,19.03
2023-09-10T05:04:19.077Z,19.01
2023-09-10T05:05:21.450Z,19.01
2023-09-10T05:06:23.332Z,19.01
2023-09-10T05:07:25.271Z,18.99
2023-09-10T05:08:29.290Z,19.01
2023-09-10T05:09:31.512Z,19.01
2023-09-10T05:10:33.620Z,19.02
2023-09-10T05:11:35.569Z,19.02
2023-09-10T05:12:37.654Z,19.03
2023-09-10T05:13:39.659Z,19.03
2023-09-10T05:14:41.531Z,19.05
2023-09-10T05:15:47.930Z,19.08
2023-09-10T05:16:50.023Z,19.10
2023-09-10T05:17:52.071Z,19.12
2023-09-10T05:18:54.180Z,19.14
2023-09-10T05:19:56.121Z,19.17
2023-09-10T05:20:58.145Z,19.18
2023-09-10T05:22:00.481Z,19.20
2023-09-10T05:23:02.692Z,19.21
2023-09-10T05:24:05.485Z,19.22
2023-09-10T05:25:08.262Z,19.23
2023-09-10T05:26:10.663Z,19.24
2023-09-10T05:27:12.775Z,19.26
2023-09-10T05:28:16.408Z,19.27
2023-09-10T05:29:19.111Z,19.31
2023-09-10T05:30:22.270Z,19.34
2023-09-10T05:31:25.231Z,19.38
2023-09-10T05:32:29.376Z,19.41
2023-09-10T05:33:33.240Z,19.43
2023-09-10T05:34:36.854Z,19.45
2023-09-10T05:35:38.850Z,19.48
2023-09-10T05:36:40.880Z,19.49
2023-09-10T05:37:43.016Z,19.51
2023-09-10T05:38:45.222Z,19.53
2023-09-10T05:39:47.779Z,19.56
2023-09-10T05:40:49.681Z,19.60
2023-09-10T05:41:52.140Z,19.70
2023-09-10T05:42:54.499Z,19.78
2023-09-10T05:43:57.848Z,19.91
2023-09-10T05:45:01.526Z,20.06
2023-09-10T05:46:06.765Z,20.23
2023-09-10T05:47:09.599Z,20.39
2023-09-10T05:48:11.541Z,20.55
2023-09-10T05:49:13.850Z,20.69
2023-09-10T05:50:16.098Z,20.88
2023-09-10T05:51:18.096Z,21.06
2023-09-10T05:52:20.290Z,21.26
2023-09-10T05:53:22.547Z,21.46
2023-09-10T05:54:24.533Z,21.64
2023-09-10T05:55:27.229Z,21.81
2023-09-10T05:56:30.058Z,21.95
2023-09-10T05:57:32.127Z,22.05
2023-09-10T05:58:34.106Z,22.14
2023-09-10T05:59:36.995Z,22.16
2023-09-10T06:00:39.522Z,22.17
2023-09-10T06:01:42.076Z,22.14
2023-09-10T06:02:45.069Z,22.12
2023-09-10T06:03:48.817Z,22.04
2023-09-10T06:04:50.908Z,22.01
2023-09-10T06:05:53.565Z,21.95
2023-09-10T06:06:57.165Z,21.88
2023-09-10T06:07:59.760Z,21.83
2023-09-10T06:09:01.991Z,21.76
2023-09-10T06:10:09.776Z,21.71
2023-09-10T06:11:13.063Z,21.68
2023-09-10T06:12:15.022Z,21.62
2023-09-10T06:13:16.904Z,21.60
2023-09-10T06:14:18.786Z,21.54
2023-09-10T06:15:20.924Z,21.48
2023-09-10T06:16:22.963Z,21.44
2023-09-10T06:17:25.459Z,21.40
2023-09-10T06:18:27.504Z,21.39
2023-09-10T06:19:29.542Z,21.35
2023-09-10T06:20:32.072Z,21.36
2023-09-10T06:21:36.208Z,21.36
2023-09-10T06:22:38.264Z,21.36
2023-09-10T06:23:40.468Z,21.36
2023-09-10T06:24:42.788Z,21.34
2023-09-10T06:25:45.471Z,21.33
2023-09-10T06:26:48.295Z,21.31
2023-09-10T06:27:50.391Z,21.31
2023-09-10T06:28:52.802Z,21.30
2023-09-10T06:29:54.896Z,21.29
2023-09-10T06:30:58.402Z,21.31
2023-09-10T06:32:01.683Z,21.30
2023-09-10T06:33:06.039Z,21.32
2023-09-10T06:34:08.141Z,21.33
2023-09-10T06:35:10.222Z,21.32
2023-09-10T06:36:12.876Z,21.30
2023-09-10T06:37:15.098Z,21.29
2023-09-10T06:38:18.980Z,21.30
2023-09-10T06:39:22.097Z,21.31
2023-09-10T06:40:28.071Z,21.32
2023-09-10T06:41:32.031Z,21.34
2023-09-10T06:42:35.172Z,21.37
2023-09-10T06:43:47.805Z,21.38
2023-09-10T06:44:52.645Z,21.41
2023-09-10T06:45:55.336Z,21.43
2023-09-10T06:46:57.276Z,21.48
2023-09-10T06:47:59.238Z,21.50
2023-09-10T06:49:01.222Z,21.55
2023-09-10T06:50:04.623Z,21.58
2023-09-10T06:51:06.511Z,21.65
2023-09-10T06:52:09.642Z,21.71
2023-09-10T06:53:11.612Z,21.80
2023-09-10T06:54:13.556Z,21.92
2023-09-10T06:55:15.735Z,22.05
2023-09-10T06:56:17.695Z,22.22
2023-09-10T06:57:19.639Z,22.38
2023-09-10T06:58:22.796Z,22.57
2023-09-10T06:59:26.089Z,22.68
2023-09-10T07:00:28.443Z,22.77
2023-09-10T07:01:30.333Z,22.84
2023-09-10T07:02:32.326Z,22.92
2023-09-10T07:03:34.648Z,23.00
2023-09-10T07:04:36.554Z,23.07
2023-09-10T07:05:44.214Z,23.13
2023-09-10T07:06:48.367Z,23.19
2023-09-10T07:07:54.319Z,23.23
2023-09-10T07:08:56.231Z,23.28
2023-09-10T07:09:58.055Z,23.33
2023-09-10T07:11:00.070Z,23.36
2023-09-10T07:12:01.998Z,23.40
2023-09-10T07:13:06.747Z,23.48
2023-09-10T07:14:09.538Z,23.54
2023-09-10T07:15:11.417Z,23.65
2023-09-10T07:16:13.465Z,23.78
2023-09-10T07:17:15.453Z,23.88
2023-09-10T07:18:17.416Z,23.95
2023-09-10T07:19:19.275Z,24.01
2023-09-10T07:20:21.189Z,24.07
2023-09-10T07:21:23.067Z,24.10
2023-09-10T07:22:24.906Z,24.12
2023-09-10T07:23:28.120Z,24.13
2023-09-10T07:24:30.087Z,24.13
2023-09-10T07:25:31.928Z,24.15
2023-09-10T07:26:40.936Z,24.17
2023-09-10T07:27:42.819Z,24.14
2023-09-10T07:28:44.769Z,24.12
2023-09-10T07:29:46.667Z,24.12
2023-09-10T07:30:48.598Z,24.12
2023-09-10T07:31:50.528Z,24.14
2023-09-10T07:32:52.596Z,24.18
2023-09-10T07:33:54.577Z,24.24
2023-09-10T07:34:56.465Z,24.27
2023-09-10T07:35:58.346Z,24.30
2023-09-10T07:37:00.179Z,24.32
2023-09-10T07:38:02.080Z,24.32
2023-09-10T07:39:04.134Z,24.37
2023-09-10T07:40:07.682Z,24.42
2023-09-10T07:41:09.643Z,24.49
2023-09-10T07:42:11.538Z,24.58
2023-09-10T07:43:13.563Z,24.66
2023-09-10T07:44:15.519Z,24.74
2023-09-10T07:45:17.704Z,24.84
2023-09-10T07:46:20.205Z,24.91
2023-09-10T07:47:22.216Z,24.98
2023-09-10T07:48:24.100Z,25.08
2023-09-10T07:49:26.040Z,25.17
2023-09-10T07:50:29.275Z,25.27
2023-09-10T07:51:32.002Z,25.43
2023-09-10T07:52:34.022Z,25.61
2023-09-10T07:53:35.968Z,25.80
2023-09-10T07:54:38.003Z,26.05
2023-09-10T07:55:39.833Z,26.28
2023-09-10T07:56:41.776Z,26.53
2023-09-10T07:57:44.289Z,26.79
2023-09-10T07:58:46.419Z,27.04
2023-09-10T07:59:48.616Z,27.31
2023-09-10T08:00:57.854Z,27.59
2023-09-10T08:02:02.448Z,27.88
2023-09-10T08:03:04.928Z,28.16
2023-09-10T08:04:07.595Z,28.40
2023-09-10T08:05:10.363Z,28.63
2023-09-10T08:06:12.360Z,28.84
2023-09-10T08:07:14.187Z,29.06
2023-09-10T08:08:16.253Z,29.26
2023-09-10T08:09:18.157Z,29.47
2023-09-10T08:10:20.200Z,29.67
2023-09-10T08:11:22.158Z,29.89
2023-09-10T08:12:24.092Z,30.11
2023-09-10T08:13:26.004Z,30.33
2023-09-10T08:14:27.923Z,30.56
2023-09-10T08:15:30.061Z,30.73
2023-09-10T08:16:32.190Z,30.84
2023-09-10T08:17:36.676Z,31.01
2023-09-10T08:18:38.881Z,31.16
2023-09-10T08:19:41.049Z,31.29
2023-09-10T08:20:43.789Z,31.41
2023-09-10T08:21:45.879Z,31.50
2023-09-10T08:22:48.617Z,31.58
2023-09-10T08:23:51.187Z,31.73
2023-09-10T08:24:54.806Z,31.93
2023-09-10T08:25:56.796Z,32.18
2023-09-10T08:27:06.826Z,32.33
2023-09-10T08:28:08.772Z,32.48
2023-09-10T08:29:10.772Z,32.67
2023-09-10T08:30:13.138Z,32.86
2023-09-10T08:31:15.055Z,33.01
2023-09-10T08:32:18.003Z,33.12
2023-09-10T08:33:20.010Z,33.27
2023-09-10T08:34:21.850Z,33.38
2023-09-10T08:35:43.094Z,33.48
2023-09-10T08:36:45.055Z,33.57
2023-09-10T08:37:47.388Z,33.70
2023-09-10T08:38:49.435Z,33.76
2023-09-10T08:39:51.462Z,33.89
2023-09-10T08:41:23.557Z,34.15
2023-09-10T08:42:56.680Z,34.40
2023-09-10T08:44:01.647Z,34.61
2023-09-10T08:45:09.121Z,34.77
2023-09-10T08:46:11.792Z,35.00
2023-09-10T08:47:18.597Z,35.22
2023-09-10T08:48:21.589Z,35.33
2023-09-10T08:49:28.488Z,35.45
2023-09-10T08:50:31.514Z,35.48
2023-09-10T08:51:35.371Z,35.40
2023-09-10T08:52:49.601Z,35.27
2023-09-10T08:53:57.498Z,35.08
2023-09-10T08:54:59.841Z,34.96
2023-09-10T08:56:03.745Z,34.86
2023-09-10T08:57:06.699Z,34.79
2023-09-10T08:58:12.543Z,34.77
2023-09-10T08:59:16.756Z,34.78
2023-09-10T09:00:23.242Z,34.77
2023-09-10T09:01:26.154Z,34.73
2023-09-10T09:02:28.764Z,34.74
2023-09-10T09:03:33.490Z,34.77
2023-09-10T09:04:35.656Z,34.77
2023-09-10T09:05:38.435Z,34.80
2023-09-10T09:06:48.453Z,34.81
2023-09-10T09:07:56.902Z,34.79
2023-09-10T09:09:08.347Z,34.80
2023-09-10T09:10:19.132Z,34.82
2023-09-10T09:11:23.550Z,34.85
2023-09-10T09:12:27.309Z,34.87
2023-09-10T09:13:35.794Z,34.88
2023-09-10T09:14:43.762Z,34.90
2023-09-10T09:15:46.604Z,34.92
2023-09-10T09:16:50.009Z,34.91
2023-09-10T09:17:56.311Z,34.90
2023-09-10T09:19:00.398Z,34.98
2023-09-10T09:20:09.991Z,35.02
2023-09-10T09:21:24.686Z,35.10
2023-09-10T09:22:32.507Z,35.16
2023-09-10T09:23:54.929Z,35.18
2023-09-10T09:24:57.148Z,35.24
2023-09-10T09:25:59.452Z,35.29
2023-09-10T09:27:03.398Z,35.30
2023-09-10T09:28:06.254Z,35.31
2023-09-10T09:29:10.021Z,35.31
2023-09-10T09:30:12.832Z,35.36
2023-09-10T09:31:15.172Z,35.49
2023-09-10T09:32:17.316Z,35.66
2023-09-10T09:33:19.376Z,35.76
2023-09-10T09:34:21.350Z,35.79
2023-09-10T09:35:23.448Z,35.79
2023-09-10T09:36:30.879Z,35.76
2023-09-10T09:37:34.366Z,35.69
2023-09-10T09:38:41.822Z,35.63
2023-09-10T09:39:46.408Z,35.57
2023-09-10T09:40:48.310Z,35.56
2023-09-10T09:41:54.835Z,35.43
2023-09-10T09:43:09.003Z,35.35
2023-09-10T09:44:20.619Z,35.22
2023-09-10T09:45:22.647Z,35.10
2023-09-10T09:46:34.305Z,34.93
2023-09-10T09:47:37.104Z,34.76
2023-09-10T09:48:40.312Z,34.58
2023-09-10T09:49:48.454Z,34.41
2023-09-10T09:50:51.538Z,34.31
2023-09-10T09:51:54.269Z,34.20
2023-09-10T09:52:57.562Z,34.11
2023-09-10T09:54:02.289Z,34.00
2023-09-10T09:55:06.824Z,33.90
2023-09-10T09:56:09.862Z,33.83
2023-09-10T09:57:12.088Z,33.83
2023-09-10T09:58:14.025Z,33.77
2023-09-10T09:59:16.828Z,33.72
2023-09-10T10:00:19.493Z,33.70
2023-09-10T10:01:23.037Z,33.63
2023-09-10T10:02:25.666Z,33.53
2023-09-10T10:03:33.419Z,33.41
2023-09-10T10:04:35.442Z,33.36
2023-09-10T10:05:37.421Z,33.37
2023-09-10T10:06:48.807Z,33.37
2023-09-10T10:07:53.709Z,33.23
2023-09-10T10:08:56.115Z,33.05
2023-09-10T10:10:00.407Z,32.92
2023-09-10T10:11:02.344Z,32.75
2023-09-10T10:12:06.124Z,32.60
2023-09-10T10:13:08.501Z,32.45
2023-09-10T10:14:11.416Z,32.28
2023-09-10T10:15:14.509Z,32.08
2023-09-10T10:16:16.779Z,31.94
2023-09-10T10:17:22.037Z,31.86
2023-09-10T10:18:29.887Z,31.77
2023-09-10T10:19:35.196Z,31.73
2023-09-10T10:20:40.238Z,31.69
2023-09-10T10:21:43.001Z,31.62
2023-09-10T10:22:45.893Z,31.55
2023-09-10T10:23:48.548Z,31.50
2023-09-10T10:24:51.382Z,31.50
2023-09-10T10:25:55.173Z,31.52
2023-09-10T10:26:58.890Z,31.54
2023-09-10T10:28:04.855Z,31.50
2023-09-10T10:29:08.024Z,31.44
2023-09-10T10:30:11.279Z,31.39
2023-09-10T10:31:18.041Z,31.36
2023-09-10T10:32:51.725Z,31.37
2023-09-10T10:34:28.236Z,31.39
2023-09-10T10:35:37.546Z,31.44
2023-09-10T10:37:24.509Z,31.49
2023-09-10T10:38:35.174Z,31.51
2023-09-10T10:39:57.892Z,31.55
2023-09-10T10:41:08.679Z,31.55
2023-09-10T10:42:17.173Z,31.57
2023-09-10T10:43:29.767Z,31.55
2023-09-10T10:44:38.463Z,31.54
2023-09-10T10:45:41.524Z,31.46
2023-09-10T10:46:45.368Z,31.41
2023-09-10T10:47:49.860Z,31.39
2023-09-10T10:48:52.372Z,31.40
2023-09-10T10:49:57.462Z,31.38
2023-09-10T10:51:03.783Z,31.36
2023-09-10T10:52:10.803Z,31.34
2023-09-10T10:53:20.038Z,31.36
2023-09-10T10:54:22.974Z,31.38
2023-09-10T10:55:27.149Z,31.43
2023-09-10T10:56:29.729Z,31.46
2023-09-10T10:57:33.139Z,31.48
2023-09-10T10:58:38.652Z,31.50
2023-09-10T10:59:41.889Z,31.53
2023-09-10T11:00:43.919Z,31.54
2023-09-10T11:02:24.729Z,31.56
2023-09-10T11:03:27.274Z,31.54
2023-09-10T11:04:29.994Z,31.48
2023-09-10T11:05:54.915Z,31.43
2023-09-10T11:07:19.491Z,31.40
2023-09-10T11:08:49.647Z,31.36
2023-09-10T11:09:51.702Z,31.32
2023-09-10T11:10:54.814Z,31.29
2023-09-10T11:11:56.738Z,31.28
2023-09-10T11:13:14.080Z,31.25
2023-09-10T11:14:16.150Z,31.19
2023-09-10T11:15:18.062Z,31.16
2023-09-10T11:16:20.074Z,31.11
2023-09-10T11:17:25.859Z,31.05
2023-09-10T11:18:54.466Z,30.96
2023-09-10T11:19:56.990Z,30.90
2023-09-10T11:20:59.010Z,30.85
2023-09-10T11:22:03.664Z,30.81
2023-09-10T11:23:12.979Z,30.79
2023-09-10T11:24:14.909Z,30.77
2023-09-10T11:25:16.793Z,30.77
2023-09-10T11:26:18.880Z,30.76
2023-09-10T11:27:28.487Z,30.75
2023-09-10T11:28:46.468Z,30.73
2023-09-10T11:30:24.908Z,30.70
2023-09-10T11:31:38.364Z,30.68
2023-09-10T11:32:45.742Z,30.66
2023-09-10T11:33:48.970Z,30.64
2023-09-10T11:34:50.932Z,30.65
2023-09-10T11:35:54.506Z,30.65
2023-09-10T11:37:03.502Z,30.66
2023-09-10T11:38:05.410Z,30.64
2023-09-10T11:39:09.340Z,30.64
2023-09-10T11:40:13.247Z,30.64
2023-09-10T11:41:15.205Z,30.65
2023-09-10T11:42:20.469Z,30.64
2023-09-10T11:43:25.152Z,30.65
2023-09-10T11:44:27.662Z,30.63
2023-09-10T11:45:31.441Z,30.61
2023-09-10T11:46:33.507Z,30.61
2023-09-10T11:47:36.512Z,30.60
2023-09-10T11:48:38.694Z,30.57
2023-09-10T11:49:40.771Z,30.55
2023-09-10T11:50:45.626Z,30.52
2023-09-10T11:51:57.597Z,30.49
2023-09-10T11:52:59.695Z,30.48
2023-09-10T11:54:01.878Z,30.44
2023-09-10T11:55:10.356Z,30.41
2023-09-10T11:56:13.053Z,30.36
2023-09-10T11:57:15.453Z,30.32
2023-09-10T11:58:20.597Z,30.29
2023-09-10T11:59:31.945Z,30.22
2023-09-10T12:00:34.303Z,30.18
2023-09-10T12:01:39.885Z,30.16
2023-09-10T12:02:42.181Z,30.13
2023-09-10T12:03:45.605Z,30.11
2023-09-10T12:04:48.252Z,30.08
2023-09-10T12:05:50.260Z,30.07
2023-09-10T12:06:52.122Z,30.03
2023-09-10T12:07:54.085Z,30.01
2023-09-10T12:08:56.043Z,29.98
2023-09-10T12:09:57.995Z,29.98
2023-09-10T12:11:04.598Z,29.98
2023-09-10T12:12:41.130Z,29.97
2023-09-10T12:13:43.457Z,29.96
2023-09-10T12:14:46.066Z,29.97
2023-09-10T12:15:48.526Z,29.97
2023-09-10T12:16:51.259Z,29.97
2023-09-10T12:17:53.291Z,29.98
2023-09-10T12:18:55.925Z,29.97
2023-09-10T12:20:00.450Z,29.96
2023-09-10T12:21:02.889Z,29.95
2023-09-10T12:22:10.453Z,29.90
2023-09-10T12:23:12.539Z,29.87
2023-09-10T12:24:14.757Z,29.82
2023-09-10T12:25:17.461Z,29.79
2023-09-10T12:26:21.040Z,29.75
2023-09-10T12:27:23.173Z,29.72
2023-09-10T12:28:26.672Z,29.71
2023-09-10T12:29:28.982Z,29.72
2023-09-10T12:30:30.978Z,29.71
2023-09-10T12:31:33.137Z,29.72
2023-09-10T12:32:36.105Z,29.71
2023-09-10T12:33:38.339Z,29.69
2023-09-10T12:34:40.985Z,29.67
2023-09-10T12:35:43.973Z,29.64
2023-09-10T12:36:46.976Z,29.62
2023-09-10T12:37:55.374Z,29.59
2023-09-10T12:38:57.439Z,29.58
2023-09-10T12:39:59.567Z,29.58
2023-09-10T12:41:01.550Z,29.57
2023-09-10T12:42:05.540Z,29.56
2023-09-10T12:43:07.590Z,29.56
2023-09-10T12:44:10.468Z,29.53
2023-09-10T12:45:12.710Z,29.50
2023-09-10T12:46:15.573Z,29.46
2023-09-10T12:47:17.986Z,29.45
2023-09-10T12:48:20.663Z,29.43
2023-09-10T12:49:23.104Z,29.41
2023-09-10T12:50:25.182Z,29.37
2023-09-10T12:51:27.315Z,29.33
2023-09-10T12:52:29.493Z,29.29
2023-09-10T12:53:31.619Z,29.27
2023-09-10T12:54:33.690Z,29.23
2023-09-10T12:55:36.778Z,29.18
2023-09-10T12:56:39.185Z,29.15
2023-09-10T12:57:41.027Z,29.09
2023-09-10T12:58:45.217Z,29.05
2023-09-10T12:59:56.028Z,29.02
2023-09-10T13:00:59.766Z,29.01
2023-09-10T13:02:05.674Z,28.98
2023-09-10T13:03:08.984Z,28.95
2023-09-10T13:04:11.210Z,28.92
2023-09-10T13:05:13.289Z,28.90
2023-09-10T13:06:15.185Z,28.89
2023-09-10T13:07:17.077Z,28.89
2023-09-10T13:08:19.111Z,28.87
2023-09-10T13:09:21.100Z,28.89
2023-09-10T13:10:23.350Z,28.86
2023-09-10T13:11:25.319Z,28.85
2023-09-10T13:12:27.226Z,28.83
2023-09-10T13:13:29.157Z,28.81
2023-09-10T13:14:31.197Z,28.80
2023-09-10T13:15:33.196Z,28.81
2023-09-10T13:16:35.181Z,28.82
2023-09-10T13:17:39.136Z,28.85
2023-09-10T13:18:41.237Z,28.86
2023-09-10T13:19:43.264Z,28.88
2023-09-10T13:20:45.169Z,28.89
2023-09-10T13:21:47.028Z,28.89
2023-09-10T13:22:48.887Z,28.91
2023-09-10T13:23:50.835Z,28.92
2023-09-10T13:24:55.712Z,28.89
2023-09-10T13:25:57.736Z,28.90
2023-09-10T13:26:59.713Z,28.89
2023-09-10T13:28:01.659Z,28.88
2023-09-10T13:29:03.775Z,28.90
2023-09-10T13:30:08.209Z,28.86
2023-09-10T13:31:10.146Z,28.85
2023-09-10T13:32:12.207Z,28.84
2023-09-10T13:33:14.400Z,28.84
2023-09-10T13:34:16.494Z,28.81
2023-09-10T13:35:18.887Z,28.82
2023-09-10T13:36:20.930Z,28.83
2023-09-10T13:37:22.878Z,28.83
2023-09-10T13:38:24.911Z,28.81
2023-09-10T13:39:32.409Z,28.79
2023-09-10T13:40:37.561Z,28.76
2023-09-10T13:41:39.564Z,28.77
2023-09-10T13:42:41.926Z,28.78
2023-09-10T13:43:44.070Z,28.78
2023-09-10T13:44:45.980Z,28.79
2023-09-10T13:45:47.963Z,28.78
2023-09-10T13:46:51.358Z,28.78
2023-09-10T13:47:53.366Z,28.76